VVCR

Details ICAO VVCR (CXR)
Name CAM RANH
Region Vietnam
Timezone Asia/Ho_Chi_Minh (UTC+7.0)
Plans Departing 36
Arriving 49
Stats Elevation 40 ft / 12 m (AMSL)
Location 11.998129° 109.219343°
Runways 1
Magnetic Variation 0.768° W
Sunrise 2017-12-17 22:58:18 UTC / 2017-12-18 05:58:18 Local
Sunset 2017-12-18 10:23:35 UTC / 2017-12-18 17:23:35 Local
Advertisement - Login to hide

Runways

ID Width Length Bearing (true) Bearing (mag) Surface Threshold Offset Overrun Length
02 150 ft / 46 m 10,049 ft / 3,063 m 18.73° 19.50° Concrete 0 ft / 0 m 1,000 ft / 305 m
20 150 ft / 46 m 10,049 ft / 3,063 m 198.73° 199.50° Concrete 0 ft / 0 m 1,000 ft / 305 m

Map

Weather


0- 5 10 15 20 25 30 35+ Temperature / ° C

Clouds and Precipitation
Forecast for 2017-12-18 12:00 UTC. Updated 2 hours ago

Ground ~20,000 ft ~40,000 ft Winds

METAR

VVCR 181030Z 03020KT 9999 FEW015 SCT050 25/15 Q1016 NOSIG

TAF

Not found
Warning: Do not use this data for real-world aviation or navigation. No guarantee of current accuracy is given.